sensor_id;sensor_type;location;lat;lon;timestamp;P1;durP1;ratioP1;P2;durP2;ratioP2
24637;SDS011;12773;50.162;8.548;2023-01-23T00:00:08;10.20;;;6.17;;
24637;SDS011;12773;50.162;8.548;2023-01-23T00:02:57;10.95;;;6.40;;
24637;SDS011;12773;50.162;8.548;2023-01-23T00:05:44;11.60;;;6.42;;
24637;SDS011;12773;50.162;8.548;2023-01-23T00:08:34;10.98;;;5.87;;
24637;SDS011;12773;50.162;8.548;2023-01-23T00:11:22;10.48;;;5.80;;
24637;SDS011;12773;50.162;8.548;2023-01-23T00:14:12;11.50;;;6.25;;
24637;SDS011;12773;50.162;8.548;2023-01-23T00:16:59;10.90;;;6.00;;
24637;SDS011;12773;50.162;8.548;2023-01-23T00:19:46;10.95;;;5.90;;
24637;SDS011;12773;50.162;8.548;2023-01-23T00:22:34;10.45;;;5.75;;
24637;SDS011;12773;50.162;8.548;2023-01-23T00:25:21;12.58;;;6.12;;
24637;SDS011;12773;50.162;8.548;2023-01-23T00:28:08;12.35;;;6.47;;
24637;SDS011;12773;50.162;8.548;2023-01-23T00:31:05;8.55;;;5.03;;
24637;SDS011;12773;50.162;8.548;2023-01-23T00:34:02;9.98;;;5.35;;
24637;SDS011;12773;50.162;8.548;2023-01-23T00:36:51;10.00;;;5.95;;
24637;SDS011;12773;50.162;8.548;2023-01-23T00:39:38;9.68;;;5.20;;
24637;SDS011;12773;50.162;8.548;2023-01-23T00:42:25;10.05;;;5.78;;
24637;SDS011;12773;50.162;8.548;2023-01-23T00:45:13;11.20;;;6.08;;
24637;SDS011;12773;50.162;8.548;2023-01-23T00:50:29;9.68;;;6.33;;
24637;SDS011;12773;50.162;8.548;2023-01-23T00:53:17;10.45;;;5.92;;
24637;SDS011;12773;50.162;8.548;2023-01-23T00:56:04;11.33;;;6.45;;
24637;SDS011;12773;50.162;8.548;2023-01-23T00:58:52;10.28;;;5.70;;
24637;SDS011;12773;50.162;8.548;2023-01-23T01:01:40;10.00;;;6.00;;
24637;SDS011;12773;50.162;8.548;2023-01-23T01:04:27;11.63;;;5.87;;
24637;SDS011;12773;50.162;8.548;2023-01-23T01:07:15;9.70;;;5.67;;
24637;SDS011;12773;50.162;8.548;2023-01-23T01:10:02;10.48;;;6.10;;
24637;SDS011;12773;50.162;8.548;2023-01-23T01:12:50;10.13;;;5.62;;
24637;SDS011;12773;50.162;8.548;2023-01-23T01:15:38;12.93;;;5.72;;
24637;SDS011;12773;50.162;8.548;2023-01-23T01:18:26;9.00;;;5.30;;
24637;SDS011;12773;50.162;8.548;2023-01-23T01:21:13;9.98;;;5.72;;
24637;SDS011;12773;50.162;8.548;2023-01-23T01:24:01;11.25;;;6.22;;
24637;SDS011;12773;50.162;8.548;2023-01-23T01:26:48;10.35;;;5.67;;
24637;SDS011;12773;50.162;8.548;2023-01-23T01:29:36;9.18;;;5.15;;
24637;SDS011;12773;50.162;8.548;2023-01-23T01:32:23;11.93;;;6.20;;
24637;SDS011;12773;50.162;8.548;2023-01-23T01:35:10;11.20;;;6.15;;
24637;SDS011;12773;50.162;8.548;2023-01-23T01:37:58;10.45;;;5.62;;
24637;SDS011;12773;50.162;8.548;2023-01-23T01:40:45;10.88;;;6.60;;
24637;SDS011;12773;50.162;8.548;2023-01-23T01:43:33;11.90;;;6.03;;
24637;SDS011;12773;50.162;8.548;2023-01-23T01:46:24;13.18;;;7.25;;
24637;SDS011;12773;50.162;8.548;2023-01-23T01:49:18;11.85;;;6.90;;
24637;SDS011;12773;50.162;8.548;2023-01-23T01:52:10;11.75;;;6.87;;
24637;SDS011;12773;50.162;8.548;2023-01-23T01:55:02;13.72;;;7.12;;
24637;SDS011;12773;50.162;8.548;2023-01-23T01:57:51;13.22;;;6.95;;
24637;SDS011;12773;50.162;8.548;2023-01-23T02:00:39;15.28;;;7.42;;
24637;SDS011;12773;50.162;8.548;2023-01-23T02:03:27;13.78;;;7.05;;
24637;SDS011;12773;50.162;8.548;2023-01-23T02:06:14;15.13;;;7.33;;
24637;SDS011;12773;50.162;8.548;2023-01-23T02:09:04;14.63;;;7.17;;
24637;SDS011;12773;50.162;8.548;2023-01-23T02:11:53;15.68;;;7.67;;
24637;SDS011;12773;50.162;8.548;2023-01-23T02:14:40;13.75;;;6.90;;
24637;SDS011;12773;50.162;8.548;2023-01-23T02:17:29;13.55;;;7.03;;
24637;SDS011;12773;50.162;8.548;2023-01-23T02:20:18;12.47;;;6.78;;
24637;SDS011;12773;50.162;8.548;2023-01-23T02:26:19;15.15;;;7.55;;
24637;SDS011;12773;50.162;8.548;2023-01-23T02:29:08;14.00;;;6.92;;
24637;SDS011;12773;50.162;8.548;2023-01-23T02:31:56;14.15;;;7.50;;
24637;SDS011;12773;50.162;8.548;2023-01-23T02:34:44;14.30;;;7.10;;
24637;SDS011;12773;50.162;8.548;2023-01-23T02:37:31;12.85;;;7.05;;
24637;SDS011;12773;50.162;8.548;2023-01-23T02:40:24;13.98;;;7.33;;
24637;SDS011;12773;50.162;8.548;2023-01-23T02:43:23;13.38;;;7.28;;
24637;SDS011;12773;50.162;8.548;2023-01-23T02:46:13;14.98;;;7.72;;
24637;SDS011;12773;50.162;8.548;2023-01-23T02:49:02;14.63;;;7.90;;
24637;SDS011;12773;50.162;8.548;2023-01-23T02:51:50;14.45;;;7.87;;
24637;SDS011;12773;50.162;8.548;2023-01-23T02:54:38;13.50;;;7.42;;
24637;SDS011;12773;50.162;8.548;2023-01-23T02:57:26;12.80;;;7.10;;
24637;SDS011;12773;50.162;8.548;2023-01-23T03:00:14;14.98;;;7.90;;
24637;SDS011;12773;50.162;8.548;2023-01-23T03:03:01;13.25;;;7.60;;
24637;SDS011;12773;50.162;8.548;2023-01-23T03:05:50;13.60;;;7.53;;
24637;SDS011;12773;50.162;8.548;2023-01-23T03:08:38;14.30;;;7.60;;
24637;SDS011;12773;50.162;8.548;2023-01-23T03:11:27;13.85;;;7.28;;
24637;SDS011;12773;50.162;8.548;2023-01-23T03:14:18;13.58;;;7.15;;
24637;SDS011;12773;50.162;8.548;2023-01-23T03:17:07;15.03;;;7.08;;
24637;SDS011;12773;50.162;8.548;2023-01-23T03:19:55;11.80;;;6.47;;
24637;SDS011;12773;50.162;8.548;2023-01-23T03:22:42;11.78;;;7.17;;
24637;SDS011;12773;50.162;8.548;2023-01-23T03:25:31;12.33;;;6.78;;
24637;SDS011;12773;50.162;8.548;2023-01-23T03:28:18;13.30;;;7.45;;
24637;SDS011;12773;50.162;8.548;2023-01-23T03:31:23;11.38;;;6.40;;
24637;SDS011;12773;50.162;8.548;2023-01-23T03:34:11;13.83;;;6.87;;
24637;SDS011;12773;50.162;8.548;2023-01-23T03:36:58;13.50;;;7.15;;
24637;SDS011;12773;50.162;8.548;2023-01-23T03:39:46;11.00;;;6.15;;
24637;SDS011;12773;50.162;8.548;2023-01-23T03:42:51;13.32;;;6.67;;
24637;SDS011;12773;50.162;8.548;2023-01-23T03:45:38;12.33;;;6.87;;
24637;SDS011;12773;50.162;8.548;2023-01-23T03:48:26;13.53;;;6.40;;
24637;SDS011;12773;50.162;8.548;2023-01-23T03:51:13;11.95;;;6.47;;
24637;SDS011;12773;50.162;8.548;2023-01-23T03:54:00;10.78;;;5.87;;
24637;SDS011;12773;50.162;8.548;2023-01-23T03:56:48;14.40;;;6.17;;
24637;SDS011;12773;50.162;8.548;2023-01-23T03:59:35;12.13;;;6.35;;
24637;SDS011;12773;50.162;8.548;2023-01-23T04:02:23;12.25;;;6.20;;
24637;SDS011;12773;50.162;8.548;2023-01-23T04:05:10;11.57;;;6.20;;
24637;SDS011;12773;50.162;8.548;2023-01-23T04:07:57;10.03;;;5.65;;
24637;SDS011;12773;50.162;8.548;2023-01-23T04:10:45;10.53;;;6.05;;
24637;SDS011;12773;50.162;8.548;2023-01-23T04:13:33;11.85;;;5.97;;
24637;SDS011;12773;50.162;8.548;2023-01-23T04:16:20;10.30;;;5.83;;
24637;SDS011;12773;50.162;8.548;2023-01-23T04:19:07;9.53;;;5.20;;
24637;SDS011;12773;50.162;8.548;2023-01-23T04:21:55;10.93;;;5.35;;
24637;SDS011;12773;50.162;8.548;2023-01-23T04:24:43;8.08;;;4.55;;
24637;SDS011;12773;50.162;8.548;2023-01-23T04:27:30;8.83;;;5.00;;
24637;SDS011;12773;50.162;8.548;2023-01-23T04:30:18;7.55;;;4.70;;
24637;SDS011;12773;50.162;8.548;2023-01-23T04:33:06;6.35;;;4.15;;
24637;SDS011;12773;50.162;8.548;2023-01-23T04:35:55;7.75;;;4.37;;
24637;SDS011;12773;50.162;8.548;2023-01-23T04:38:44;8.55;;;4.47;;
24637;SDS011;12773;50.162;8.548;2023-01-23T04:41:32;7.50;;;4.53;;
24637;SDS011;12773;50.162;8.548;2023-01-23T04:44:19;8.05;;;4.60;;
24637;SDS011;12773;50.162;8.548;2023-01-23T04:47:07;6.65;;;4.08;;
24637;SDS011;12773;50.162;8.548;2023-01-23T04:49:55;8.13;;;4.30;;
24637;SDS011;12773;50.162;8.548;2023-01-23T04:52:42;7.78;;;4.08;;
24637;SDS011;12773;50.162;8.548;2023-01-23T04:55:29;8.05;;;4.35;;
24637;SDS011;12773;50.162;8.548;2023-01-23T04:58:17;6.15;;;3.75;;
24637;SDS011;12773;50.162;8.548;2023-01-23T05:01:06;7.45;;;4.20;;
24637;SDS011;12773;50.162;8.548;2023-01-23T05:03:53;8.43;;;4.40;;
24637;SDS011;12773;50.162;8.548;2023-01-23T05:06:40;6.45;;;4.10;;
24637;SDS011;12773;50.162;8.548;2023-01-23T05:09:28;8.03;;;4.60;;
24637;SDS011;12773;50.162;8.548;2023-01-23T05:12:15;8.15;;;4.42;;
24637;SDS011;12773;50.162;8.548;2023-01-23T05:15:03;9.88;;;5.05;;
24637;SDS011;12773;50.162;8.548;2023-01-23T05:17:51;8.85;;;4.22;;
24637;SDS011;12773;50.162;8.548;2023-01-23T05:20:39;7.85;;;4.58;;
24637;SDS011;12773;50.162;8.548;2023-01-23T05:23:26;8.28;;;4.85;;
24637;SDS011;12773;50.162;8.548;2023-01-23T05:26:13;9.55;;;5.10;;
24637;SDS011;12773;50.162;8.548;2023-01-23T05:29:01;9.78;;;5.37;;
24637;SDS011;12773;50.162;8.548;2023-01-23T05:31:48;8.68;;;4.45;;
24637;SDS011;12773;50.162;8.548;2023-01-23T05:34:36;8.78;;;4.92;;
24637;SDS011;12773;50.162;8.548;2023-01-23T05:37:23;7.72;;;4.83;;
24637;SDS011;12773;50.162;8.548;2023-01-23T05:40:11;7.80;;;4.78;;
24637;SDS011;12773;50.162;8.548;2023-01-23T05:42:59;8.30;;;4.87;;
24637;SDS011;12773;50.162;8.548;2023-01-23T05:45:46;6.90;;;4.45;;
24637;SDS011;12773;50.162;8.548;2023-01-23T05:48:33;8.13;;;4.37;;
24637;SDS011;12773;50.162;8.548;2023-01-23T05:51:21;6.83;;;4.50;;
24637;SDS011;12773;50.162;8.548;2023-01-23T05:54:10;9.30;;;4.60;;
24637;SDS011;12773;50.162;8.548;2023-01-23T05:56:57;8.88;;;4.55;;
24637;SDS011;12773;50.162;8.548;2023-01-23T05:59:44;8.45;;;4.67;;
24637;SDS011;12773;50.162;8.548;2023-01-23T06:02:32;7.65;;;4.80;;
24637;SDS011;12773;50.162;8.548;2023-01-23T06:05:20;8.03;;;4.95;;
24637;SDS011;12773;50.162;8.548;2023-01-23T06:08:08;6.83;;;4.22;;
24637;SDS011;12773;50.162;8.548;2023-01-23T06:10:56;9.40;;;5.37;;
24637;SDS011;12773;50.162;8.548;2023-01-23T06:13:44;8.83;;;4.83;;
24637;SDS011;12773;50.162;8.548;2023-01-23T06:16:31;8.98;;;5.05;;
24637;SDS011;12773;50.162;8.548;2023-01-23T06:19:18;6.45;;;4.20;;
24637;SDS011;12773;50.162;8.548;2023-01-23T06:22:06;8.23;;;4.87;;
24637;SDS011;12773;50.162;8.548;2023-01-23T06:24:53;8.00;;;5.03;;
24637;SDS011;12773;50.162;8.548;2023-01-23T06:27:40;9.28;;;5.42;;
24637;SDS011;12773;50.162;8.548;2023-01-23T06:30:28;8.48;;;4.90;;
24637;SDS011;12773;50.162;8.548;2023-01-23T06:33:16;9.98;;;5.67;;
24637;SDS011;12773;50.162;8.548;2023-01-23T06:36:04;9.05;;;5.35;;
24637;SDS011;12773;50.162;8.548;2023-01-23T06:38:52;7.45;;;4.67;;
24637;SDS011;12773;50.162;8.548;2023-01-23T06:41:40;9.03;;;5.30;;
24637;SDS011;12773;50.162;8.548;2023-01-23T06:44:28;9.00;;;5.30;;
24637;SDS011;12773;50.162;8.548;2023-01-23T06:47:16;8.75;;;5.70;;
24637;SDS011;12773;50.162;8.548;2023-01-23T06:50:04;8.23;;;5.22;;
24637;SDS011;12773;50.162;8.548;2023-01-23T06:52:52;10.00;;;5.55;;
24637;SDS011;12773;50.162;8.548;2023-01-23T06:55:39;8.95;;;5.95;;
24637;SDS011;12773;50.162;8.548;2023-01-23T06:58:26;8.98;;;5.10;;
24637;SDS011;12773;50.162;8.548;2023-01-23T07:01:14;8.53;;;5.37;;
24637;SDS011;12773;50.162;8.548;2023-01-23T07:04:04;8.08;;;5.10;;
24637;SDS011;12773;50.162;8.548;2023-01-23T07:06:53;12.37;;;6.42;;
24637;SDS011;12773;50.162;8.548;2023-01-23T07:09:41;9.83;;;5.80;;
24637;SDS011;12773;50.162;8.548;2023-01-23T07:12:28;9.05;;;5.85;;
24637;SDS011;12773;50.162;8.548;2023-01-23T07:15:15;10.50;;;5.40;;
24637;SDS011;12773;50.162;8.548;2023-01-23T07:18:03;9.13;;;5.55;;
24637;SDS011;12773;50.162;8.548;2023-01-23T07:20:50;8.38;;;5.03;;
24637;SDS011;12773;50.162;8.548;2023-01-23T07:23:37;11.28;;;5.50;;
24637;SDS011;12773;50.162;8.548;2023-01-23T07:26:24;8.85;;;5.35;;
24637;SDS011;12773;50.162;8.548;2023-01-23T07:29:12;7.87;;;4.87;;
24637;SDS011;12773;50.162;8.548;2023-01-23T07:31:59;9.38;;;5.55;;
24637;SDS011;12773;50.162;8.548;2023-01-23T07:34:47;9.45;;;5.60;;
24637;SDS011;12773;50.162;8.548;2023-01-23T07:37:34;8.35;;;5.67;;
24637;SDS011;12773;50.162;8.548;2023-01-23T07:40:21;9.30;;;5.17;;
24637;SDS011;12773;50.162;8.548;2023-01-23T07:43:09;13.08;;;5.40;;
24637;SDS011;12773;50.162;8.548;2023-01-23T07:45:58;11.08;;;5.97;;
24637;SDS011;12773;50.162;8.548;2023-01-23T07:48:45;10.10;;;6.40;;
24637;SDS011;12773;50.162;8.548;2023-01-23T07:51:33;8.23;;;5.00;;
24637;SDS011;12773;50.162;8.548;2023-01-23T07:54:20;7.97;;;4.90;;
24637;SDS011;12773;50.162;8.548;2023-01-23T07:57:07;8.10;;;5.30;;
24637;SDS011;12773;50.162;8.548;2023-01-23T07:59:55;8.48;;;5.33;;
24637;SDS011;12773;50.162;8.548;2023-01-23T08:02:42;8.88;;;5.35;;
24637;SDS011;12773;50.162;8.548;2023-01-23T08:05:30;8.90;;;5.28;;
24637;SDS011;12773;50.162;8.548;2023-01-23T08:08:17;7.33;;;4.85;;
24637;SDS011;12773;50.162;8.548;2023-01-23T08:11:05;7.70;;;4.90;;
24637;SDS011;12773;50.162;8.548;2023-01-23T08:13:54;9.10;;;5.22;;
24637;SDS011;12773;50.162;8.548;2023-01-23T08:16:41;11.03;;;6.35;;
24637;SDS011;12773;50.162;8.548;2023-01-23T08:19:29;10.00;;;5.97;;
24637;SDS011;12773;50.162;8.548;2023-01-23T08:22:16;11.05;;;5.70;;
24637;SDS011;12773;50.162;8.548;2023-01-23T08:25:06;10.23;;;6.33;;
24637;SDS011;12773;50.162;8.548;2023-01-23T08:27:54;8.58;;;5.58;;
24637;SDS011;12773;50.162;8.548;2023-01-23T08:30:42;8.90;;;5.67;;
24637;SDS011;12773;50.162;8.548;2023-01-23T08:33:29;9.23;;;6.03;;
24637;SDS011;12773;50.162;8.548;2023-01-23T08:36:18;9.78;;;6.33;;
24637;SDS011;12773;50.162;8.548;2023-01-23T08:39:07;11.05;;;6.12;;
24637;SDS011;12773;50.162;8.548;2023-01-23T08:41:55;10.45;;;6.28;;
24637;SDS011;12773;50.162;8.548;2023-01-23T08:44:42;9.08;;;5.62;;
24637;SDS011;12773;50.162;8.548;2023-01-23T08:47:29;9.70;;;5.75;;
24637;SDS011;12773;50.162;8.548;2023-01-23T08:50:18;10.85;;;6.33;;
24637;SDS011;12773;50.162;8.548;2023-01-23T08:53:06;9.80;;;5.65;;
24637;SDS011;12773;50.162;8.548;2023-01-23T08:55:57;10.85;;;6.37;;
24637;SDS011;12773;50.162;8.548;2023-01-23T08:58:53;10.15;;;5.65;;
24637;SDS011;12773;50.162;8.548;2023-01-23T09:01:41;13.38;;;6.55;;
24637;SDS011;12773;50.162;8.548;2023-01-23T09:04:28;11.28;;;6.25;;
24637;SDS011;12773;50.162;8.548;2023-01-23T09:07:15;11.33;;;6.78;;
24637;SDS011;12773;50.162;8.548;2023-01-23T09:10:02;12.33;;;6.47;;
24637;SDS011;12773;50.162;8.548;2023-01-23T09:12:51;12.53;;;6.87;;
24637;SDS011;12773;50.162;8.548;2023-01-23T09:15:41;10.55;;;6.40;;
24637;SDS011;12773;50.162;8.548;2023-01-23T09:21:35;10.10;;;6.72;;
24637;SDS011;12773;50.162;8.548;2023-01-23T09:24:22;10.43;;;6.42;;
24637;SDS011;12773;50.162;8.548;2023-01-23T09:27:10;11.68;;;7.08;;
24637;SDS011;12773;50.162;8.548;2023-01-23T09:29:57;12.65;;;7.25;;
24637;SDS011;12773;50.162;8.548;2023-01-23T09:32:45;10.93;;;6.97;;
24637;SDS011;12773;50.162;8.548;2023-01-23T09:35:32;10.65;;;6.83;;
24637;SDS011;12773;50.162;8.548;2023-01-23T09:38:20;9.35;;;5.53;;
24637;SDS011;12773;50.162;8.548;2023-01-23T09:41:09;9.68;;;6.10;;
24637;SDS011;12773;50.162;8.548;2023-01-23T09:44:20;10.70;;;6.67;;
24637;SDS011;12773;50.162;8.548;2023-01-23T09:47:16;12.30;;;7.37;;
24637;SDS011;12773;50.162;8.548;2023-01-23T09:50:24;11.83;;;7.28;;
24637;SDS011;12773;50.162;8.548;2023-01-23T09:53:14;11.93;;;7.00;;
24637;SDS011;12773;50.162;8.548;2023-01-23T09:56:05;13.43;;;7.33;;
24637;SDS011;12773;50.162;8.548;2023-01-23T10:02:15;10.98;;;6.47;;
24637;SDS011;12773;50.162;8.548;2023-01-23T10:05:04;12.53;;;6.12;;
24637;SDS011;12773;50.162;8.548;2023-01-23T10:11:28;8.65;;;5.50;;
24637;SDS011;12773;50.162;8.548;2023-01-23T10:14:20;10.00;;;6.22;;
24637;SDS011;12773;50.162;8.548;2023-01-23T10:20:26;8.88;;;5.20;;
24637;SDS011;12773;50.162;8.548;2023-01-23T10:26:33;7.15;;;4.60;;
24637;SDS011;12773;50.162;8.548;2023-01-23T10:29:35;6.50;;;4.67;;
24637;SDS011;12773;50.162;8.548;2023-01-23T10:32:25;6.40;;;3.50;;
24637;SDS011;12773;50.162;8.548;2023-01-23T10:35:16;7.28;;;3.80;;
24637;SDS011;12773;50.162;8.548;2023-01-23T10:38:29;7.62;;;4.70;;
24637;SDS011;12773;50.162;8.548;2023-01-23T10:41:30;7.58;;;4.62;;
24637;SDS011;12773;50.162;8.548;2023-01-23T10:44:19;7.37;;;4.83;;
24637;SDS011;12773;50.162;8.548;2023-01-23T10:47:13;7.80;;;4.80;;
24637;SDS011;12773;50.162;8.548;2023-01-23T10:50:06;8.88;;;4.80;;
24637;SDS011;12773;50.162;8.548;2023-01-23T10:52:55;7.75;;;4.55;;
24637;SDS011;12773;50.162;8.548;2023-01-23T10:55:45;7.33;;;4.72;;
24637;SDS011;12773;50.162;8.548;2023-01-23T10:58:36;8.78;;;4.83;;
24637;SDS011;12773;50.162;8.548;2023-01-23T11:01:28;7.42;;;4.78;;
24637;SDS011;12773;50.162;8.548;2023-01-23T11:04:18;6.80;;;4.33;;
24637;SDS011;12773;50.162;8.548;2023-01-23T11:07:12;7.35;;;4.80;;
24637;SDS011;12773;50.162;8.548;2023-01-23T11:13:00;9.50;;;5.55;;
24637;SDS011;12773;50.162;8.548;2023-01-23T11:15:48;9.10;;;5.47;;
24637;SDS011;12773;50.162;8.548;2023-01-23T11:18:38;10.40;;;5.40;;
24637;SDS011;12773;50.162;8.548;2023-01-23T11:21:29;8.70;;;5.05;;
24637;SDS011;12773;50.162;8.548;2023-01-23T11:27:20;11.33;;;5.42;;
24637;SDS011;12773;50.162;8.548;2023-01-23T11:30:28;9.78;;;5.12;;
24637;SDS011;12773;50.162;8.548;2023-01-23T11:33:28;9.88;;;6.20;;
24637;SDS011;12773;50.162;8.548;2023-01-23T11:39:39;12.40;;;5.95;;
24637;SDS011;12773;50.162;8.548;2023-01-23T11:42:38;10.35;;;5.42;;
24637;SDS011;12773;50.162;8.548;2023-01-23T11:45:46;10.65;;;6.15;;
24637;SDS011;12773;50.162;8.548;2023-01-23T11:58:36;9.13;;;5.17;;
24637;SDS011;12773;50.162;8.548;2023-01-23T12:07:51;13.13;;;6.80;;
24637;SDS011;12773;50.162;8.548;2023-01-23T12:13:54;14.25;;;6.08;;
24637;SDS011;12773;50.162;8.548;2023-01-23T12:22:49;10.93;;;5.50;;
24637;SDS011;12773;50.162;8.548;2023-01-23T12:25:59;11.08;;;6.17;;
24637;SDS011;12773;50.162;8.548;2023-01-23T12:28:53;12.00;;;6.15;;
24637;SDS011;12773;50.162;8.548;2023-01-23T12:32:00;10.05;;;6.10;;
24637;SDS011;12773;50.162;8.548;2023-01-23T12:35:01;8.93;;;5.75;;
24637;SDS011;12773;50.162;8.548;2023-01-23T12:44:36;12.33;;;5.97;;
24637;SDS011;12773;50.162;8.548;2023-01-23T12:47:36;15.32;;;6.47;;
24637;SDS011;12773;50.162;8.548;2023-01-23T12:53:25;10.63;;;6.20;;
24637;SDS011;12773;50.162;8.548;2023-01-23T12:56:20;13.70;;;5.55;;
24637;SDS011;12773;50.162;8.548;2023-01-23T13:02:18;9.28;;;5.65;;
24637;SDS011;12773;50.162;8.548;2023-01-23T13:05:15;9.05;;;5.33;;
24637;SDS011;12773;50.162;8.548;2023-01-23T13:08:16;9.63;;;5.28;;
24637;SDS011;12773;50.162;8.548;2023-01-23T13:11:09;11.00;;;5.65;;
24637;SDS011;12773;50.162;8.548;2023-01-23T13:17:28;19.25;;;6.17;;
24637;SDS011;12773;50.162;8.548;2023-01-23T13:23:34;8.90;;;5.22;;
24637;SDS011;12773;50.162;8.548;2023-01-23T13:26:23;9.23;;;5.42;;
24637;SDS011;12773;50.162;8.548;2023-01-23T13:29:43;9.43;;;5.42;;
24637;SDS011;12773;50.162;8.548;2023-01-23T13:32:32;14.05;;;5.87;;
24637;SDS011;12773;50.162;8.548;2023-01-23T13:38:33;14.90;;;5.03;;
24637;SDS011;12773;50.162;8.548;2023-01-23T13:41:28;9.90;;;5.62;;
24637;SDS011;12773;50.162;8.548;2023-01-23T13:44:23;9.78;;;5.33;;
24637;SDS011;12773;50.162;8.548;2023-01-23T13:47:19;19.23;;;5.42;;
24637;SDS011;12773;50.162;8.548;2023-01-23T13:50:28;11.35;;;6.10;;
24637;SDS011;12773;50.162;8.548;2023-01-23T13:53:18;9.68;;;5.28;;
24637;SDS011;12773;50.162;8.548;2023-01-23T13:56:27;10.80;;;5.75;;
24637;SDS011;12773;50.162;8.548;2023-01-23T13:59:28;10.72;;;6.12;;
24637;SDS011;12773;50.162;8.548;2023-01-23T14:02:26;10.55;;;5.42;;
24637;SDS011;12773;50.162;8.548;2023-01-23T14:05:31;10.13;;;5.00;;
24637;SDS011;12773;50.162;8.548;2023-01-23T14:08:21;9.48;;;5.12;;
24637;SDS011;12773;50.162;8.548;2023-01-23T14:11:14;8.93;;;5.00;;
24637;SDS011;12773;50.162;8.548;2023-01-23T14:14:04;11.78;;;5.33;;
24637;SDS011;12773;50.162;8.548;2023-01-23T14:17:10;9.85;;;5.75;;
24637;SDS011;12773;50.162;8.548;2023-01-23T14:19:59;10.60;;;5.75;;
24637;SDS011;12773;50.162;8.548;2023-01-23T14:22:49;8.20;;;4.85;;
24637;SDS011;12773;50.162;8.548;2023-01-23T14:25:40;12.78;;;6.08;;
24637;SDS011;12773;50.162;8.548;2023-01-23T14:28:28;9.58;;;4.95;;
24637;SDS011;12773;50.162;8.548;2023-01-23T14:31:27;10.80;;;5.28;;
24637;SDS011;12773;50.162;8.548;2023-01-23T14:34:14;10.80;;;5.62;;
24637;SDS011;12773;50.162;8.548;2023-01-23T14:37:04;9.08;;;5.47;;
24637;SDS011;12773;50.162;8.548;2023-01-23T14:39:53;9.30;;;5.10;;
24637;SDS011;12773;50.162;8.548;2023-01-23T14:42:50;10.85;;;6.17;;
24637;SDS011;12773;50.162;8.548;2023-01-23T14:45:48;11.15;;;5.90;;
24637;SDS011;12773;50.162;8.548;2023-01-23T14:48:41;10.43;;;5.62;;
24637;SDS011;12773;50.162;8.548;2023-01-23T14:51:29;14.90;;;6.17;;
24637;SDS011;12773;50.162;8.548;2023-01-23T14:54:17;11.93;;;6.33;;
24637;SDS011;12773;50.162;8.548;2023-01-23T14:57:06;10.95;;;5.70;;
24637;SDS011;12773;50.162;8.548;2023-01-23T14:59:56;10.63;;;6.03;;
24637;SDS011;12773;50.162;8.548;2023-01-23T15:02:44;11.55;;;5.72;;
24637;SDS011;12773;50.162;8.548;2023-01-23T15:05:34;16.20;;;5.80;;
24637;SDS011;12773;50.162;8.548;2023-01-23T15:08:25;11.35;;;6.15;;
24637;SDS011;12773;50.162;8.548;2023-01-23T15:11:15;11.97;;;6.10;;
24637;SDS011;12773;50.162;8.548;2023-01-23T15:14:05;12.60;;;5.80;;
24637;SDS011;12773;50.162;8.548;2023-01-23T15:16:57;13.20;;;5.95;;
24637;SDS011;12773;50.162;8.548;2023-01-23T15:19:50;12.33;;;6.62;;
24637;SDS011;12773;50.162;8.548;2023-01-23T15:22:44;12.00;;;6.30;;
24637;SDS011;12773;50.162;8.548;2023-01-23T15:25:31;10.28;;;5.90;;
24637;SDS011;12773;50.162;8.548;2023-01-23T15:28:36;13.05;;;6.03;;
24637;SDS011;12773;50.162;8.548;2023-01-23T15:31:28;10.95;;;5.97;;
24637;SDS011;12773;50.162;8.548;2023-01-23T15:34:19;10.35;;;6.15;;
24637;SDS011;12773;50.162;8.548;2023-01-23T15:40:15;13.10;;;6.25;;
24637;SDS011;12773;50.162;8.548;2023-01-23T15:43:17;11.68;;;5.90;;
24637;SDS011;12773;50.162;8.548;2023-01-23T15:46:06;13.30;;;6.67;;
24637;SDS011;12773;50.162;8.548;2023-01-23T15:48:56;12.43;;;6.25;;
24637;SDS011;12773;50.162;8.548;2023-01-23T15:51:43;10.53;;;5.65;;
24637;SDS011;12773;50.162;8.548;2023-01-23T15:54:36;11.38;;;5.83;;
24637;SDS011;12773;50.162;8.548;2023-01-23T15:57:20;12.23;;;6.75;;
24637;SDS011;12773;50.162;8.548;2023-01-23T16:00:15;10.20;;;5.47;;
24637;SDS011;12773;50.162;8.548;2023-01-23T16:03:04;12.80;;;5.95;;
24637;SDS011;12773;50.162;8.548;2023-01-23T16:05:51;15.85;;;6.65;;
24637;SDS011;12773;50.162;8.548;2023-01-23T16:08:39;13.38;;;7.30;;
24637;SDS011;12773;50.162;8.548;2023-01-23T16:11:27;16.65;;;8.93;;
24637;SDS011;12773;50.162;8.548;2023-01-23T16:14:17;16.90;;;8.33;;
24637;SDS011;12773;50.162;8.548;2023-01-23T16:17:05;12.65;;;7.50;;
24637;SDS011;12773;50.162;8.548;2023-01-23T16:19:54;14.65;;;8.15;;
24637;SDS011;12773;50.162;8.548;2023-01-23T16:22:42;16.15;;;8.35;;
24637;SDS011;12773;50.162;8.548;2023-01-23T16:25:31;15.60;;;7.35;;
24637;SDS011;12773;50.162;8.548;2023-01-23T16:28:23;15.10;;;7.08;;
24637;SDS011;12773;50.162;8.548;2023-01-23T16:31:15;13.13;;;7.05;;
24637;SDS011;12773;50.162;8.548;2023-01-23T16:34:03;10.78;;;6.15;;
24637;SDS011;12773;50.162;8.548;2023-01-23T16:36:52;11.97;;;6.40;;
24637;SDS011;12773;50.162;8.548;2023-01-23T16:39:43;11.65;;;6.35;;
24637;SDS011;12773;50.162;8.548;2023-01-23T16:42:32;12.05;;;6.05;;
24637;SDS011;12773;50.162;8.548;2023-01-23T16:45:20;12.23;;;6.08;;
24637;SDS011;12773;50.162;8.548;2023-01-23T16:48:12;11.85;;;6.53;;
24637;SDS011;12773;50.162;8.548;2023-01-23T16:51:05;13.85;;;7.40;;
24637;SDS011;12773;50.162;8.548;2023-01-23T16:53:55;14.40;;;6.55;;
24637;SDS011;12773;50.162;8.548;2023-01-23T16:56:46;13.35;;;6.70;;
24637;SDS011;12773;50.162;8.548;2023-01-23T16:59:36;11.85;;;6.47;;
24637;SDS011;12773;50.162;8.548;2023-01-23T17:02:27;10.70;;;6.25;;
24637;SDS011;12773;50.162;8.548;2023-01-23T17:05:16;11.93;;;6.60;;
24637;SDS011;12773;50.162;8.548;2023-01-23T17:08:23;14.18;;;7.92;;
24637;SDS011;12773;50.162;8.548;2023-01-23T17:11:07;11.73;;;6.50;;
24637;SDS011;12773;50.162;8.548;2023-01-23T17:13:57;16.32;;;5.97;;
24637;SDS011;12773;50.162;8.548;2023-01-23T17:16:46;13.20;;;6.78;;
24637;SDS011;12773;50.162;8.548;2023-01-23T17:19:37;13.93;;;7.20;;
24637;SDS011;12773;50.162;8.548;2023-01-23T17:22:27;13.50;;;7.90;;
24637;SDS011;12773;50.162;8.548;2023-01-23T17:25:18;13.35;;;7.97;;
24637;SDS011;12773;50.162;8.548;2023-01-23T17:28:10;14.68;;;7.67;;
24637;SDS011;12773;50.162;8.548;2023-01-23T17:30:58;11.70;;;6.30;;
24637;SDS011;12773;50.162;8.548;2023-01-23T17:33:46;16.90;;;6.50;;
24637;SDS011;12773;50.162;8.548;2023-01-23T17:36:36;13.35;;;6.62;;
24637;SDS011;12773;50.162;8.548;2023-01-23T17:39:23;14.10;;;6.78;;
24637;SDS011;12773;50.162;8.548;2023-01-23T17:42:11;14.98;;;6.15;;
24637;SDS011;12773;50.162;8.548;2023-01-23T17:44:59;15.28;;;7.22;;
24637;SDS011;12773;50.162;8.548;2023-01-23T17:47:48;14.87;;;7.87;;
24637;SDS011;12773;50.162;8.548;2023-01-23T17:50:37;14.18;;;7.10;;
24637;SDS011;12773;50.162;8.548;2023-01-23T17:53:24;12.50;;;7.37;;
24637;SDS011;12773;50.162;8.548;2023-01-23T17:56:12;14.87;;;7.60;;
24637;SDS011;12773;50.162;8.548;2023-01-23T17:59:00;15.48;;;7.45;;
24637;SDS011;12773;50.162;8.548;2023-01-23T18:01:47;13.80;;;7.00;;
24637;SDS011;12773;50.162;8.548;2023-01-23T18:04:35;14.43;;;6.78;;
24637;SDS011;12773;50.162;8.548;2023-01-23T18:07:23;14.18;;;6.87;;
24637;SDS011;12773;50.162;8.548;2023-01-23T18:10:11;14.70;;;7.55;;
24637;SDS011;12773;50.162;8.548;2023-01-23T18:13:02;11.68;;;6.85;;
24637;SDS011;12773;50.162;8.548;2023-01-23T18:16:11;14.57;;;7.17;;